• Join FlightAware (Why Join?)
  • Login
  • US Flag 
09:36PM EDT


 

Airport Tracker/Info


-or-


 

Live Flight TrackerFlight Track Log ✈ UCA3597 ✈ 05-Dec-2013 ✈ KBGM - KIAD

Flight Track Log - Related Links

Times and Time Zones

All times are in EST time to prevent confusion due to time zone crossing. See the UCA3597 flight status page for this flight to view local times or setup timezone preferences in your user account.

Time Position Orientation Groundspeed Altitude Reporting Facility
EST Latitude Longitude Course Direction KTS MPH feet Rate Location/Type
08:05PM 42.1547 -75.9822 189° South 123 142 3,900  Level New York Center
08:06PM 42.1175 -76.0211 218° Southwest 142 163 5,100 1,260 Climbing New York Center
08:07PM 42.0783 -76.0600 216° Southwest 156 180 6,500 1,380 Climbing New York Center
08:08PM 42.0372 -76.0958 213° Southwest 172 198 7,900 1,320 Climbing New York Center
08:09PM 41.9956 -76.1400 218° Southwest 177 204 9,200 1,260 Climbing New York Center
08:10PM 41.4823 -76.3228 189° South  Level Estimated
08:10PM 41.9542 -76.1811 216° Southwest 188 216 10,500  Level New York Center
08:11PM 41.9128 -76.2225 217° Southwest 188 216 11,800 1,200 Climbing New York Center
08:12PM 41.8758 -76.2556 214° Southwest 182 209 13,000 1,080 Climbing New York Center
08:13PM 41.8344 -76.2967 217° Southwest 182 209 14,000 960 Climbing New York Center
08:14PM 41.7931 -76.3350 215° Southwest 182 209 15,000 960 Climbing New York Center
08:15PM 41.7536 -76.3761 218° Southwest 187 215 16,000 480 Climbing New York Center
08:16PM 41.7119 -76.4172 216° Southwest 194 223 16,000  Level New York Center
08:17PM 41.6619 -76.4658 216° Southwest 212 244 16,000  Level New York Center
08:18PM 41.6050 -76.5192 215° Southwest 229 264 16,000  Level New York Center
08:19PM 41.5528 -76.5672 215° Southwest 229 264 16,000  Level New York Center
08:20PM 41.5047 -76.6158 217° Southwest 229 264 16,000  Level New York Center
08:21PM 41.4522 -76.6639 214° Southwest 229 264 16,000  Level New York Center
08:22PM 41.4039 -76.7150 218° Southwest 229 264 16,000  Level New York Center
08:23PM 41.3536 -76.7631 216° Southwest 229 264 16,000  Level New York Center
08:24PM 41.2917 -76.7906 198° South 234 269 16,000  Level New York Center
08:25PM 41.2264 -76.8069 191° South 234 269 16,000  Level New York Center
08:27PM 41.1628 -76.8261 193° South 239 275 16,000  Level New York Center
08:27PM 41.0908 -76.8472 192° South 244 281 16,000  Level New York Center
08:28PM 41.0275 -76.8636 191° South 244 281 16,000  Level New York Center
08:29PM 40.9622 -76.8797 191° South 239 275 16,000  Level New York Center
08:30PM 40.9028 -76.8964 192° South 234 269 16,000  Level New York Center
08:31PM 40.8394 -76.9125 191° South 234 269 16,000  Level New York Center
08:32PM 40.7719 -76.9311 192° South 240 276 16,000  Level New York Center
08:33PM 40.7106 -76.9503 193° South 240 276 16,000  Level New York Center
08:34PM 40.6450 -76.9664 191° South 245 282 16,000  Level New York Center
08:35PM 40.5794 -76.9850 192° South 245 282 16,000  Level New York Center
08:36PM 40.5139 -77.0036 192° South 240 276 16,000  Level New York Center
08:37PM 40.4547 -77.0175 190° South 240 276 16,000 -180 Level New York Center
08:38PM 40.3847 -77.0383 193° South 240 276 15,700 -600 Descending New York Center
08:39PM 40.3214 -77.0572 193° South 252 290 14,800 -900 Descending New York Center
08:40PM 40.2431 -77.0772 191° South 263 303 14,000 -660 Descending New York Center
08:42PM 40.1167 -77.1167 193° South 239 275 13,000 -720 Descending Potomac TRACON
08:43PM 40.0500 -77.1333 191° South 238 274 11,900 -1,080 Descending Potomac TRACON
08:44PM 39.9833 -77.1500 191° South 235 270 10,900 -900 Descending Potomac TRACON
08:45PM 39.9333 -77.1833 207° Southwest 232 267 10,100 -900 Descending Potomac TRACON
08:46PM 39.8833 -77.2167 207° Southwest 237 273 9,200 -960 Descending Potomac TRACON
08:47PM 39.8167 -77.2333 191° South 229 264 8,200 -1,080 Descending Potomac TRACON
08:48PM 39.7500 -77.2500 191° South 225 259 7,100 -960 Descending Potomac TRACON
08:49PM 39.7000 -77.2667 194° South 232 267 6,300 -600 Descending Potomac TRACON
08:50PM 39.6333 -77.2667 180° South 232 267 6,000 -660 Descending Potomac TRACON
08:51PM 39.5667 -77.3000 201° Southwest 227 261 5,100 -960 Descending Potomac TRACON
08:52PM 39.5167 -77.3333 207° Southwest 224 258 4,100 -600 Descending Potomac TRACON
08:53PM 39.4667 -77.3667 207° Southwest 217 250 4,000 -60 Descending Potomac TRACON
08:54PM 39.4000 -77.4167 210° Southwest 218 251 4,000  Level Potomac TRACON
08:55PM 39.3500 -77.4333 194° South 220 253 4,000 -180 Level Potomac TRACON
08:56PM 39.2833 -77.4333 180° South 225 259 3,700 -540 Descending Potomac TRACON
08:57PM 39.2167 -77.4333 180° South 224 258 3,000 -900 Descending Potomac TRACON
08:58PM 39.1667 -77.4333 180° South 214 246 2,000 -480 Descending Potomac TRACON
08:59PM 39.1000 -77.4333 180° South 195 224 2,000  Level Potomac TRACON
09:00PM 39.0667 -77.4333 180° South 146 168 2,000 -180 Level Potomac TRACON
09:01PM 39.0333 -77.4333 180° South 96 110 1,700 -360 Descending Potomac TRACON
09:02PM 39.0000 -77.4333 180° South 88 101 1,300 -480 Descending Potomac TRACON
09:04PM 38.9833 -77.4333 180° South 98 113 700 -600 Descending Potomac TRACON
09:06PM 38.9474 -77.4599 180° South  Level Estimated
09:13PM 38.9474 -77.4599 349° North  Level Estimated